Flight Track Log - Related Links

Times and Time Zones

All times are in EDT time to prevent confusion due to time zone crossing. See the LYM3612 flight status page for this flight to view local times or setup timezone preferences in your user account.

Time Position Orientation Groundspeed Altitude Reporting Facility
EDT Latitude Longitude Course Direction KTS MPH feet Rate Location/Type
Thu 08:08:57 AM 39.9000 -104.6667 14° North 166 191 7,500  Level Denver TRACON
Thu 08:09:57 AM 39.9500 -104.6500 360° North 184 212 9,100 1,750 Climbing Denver TRACON
Thu 08:10:57 AM 40.0000 -104.6500 349° North 176 203 11,000 1,524 Climbing Denver TRACON
Thu 08:12:03 AM 40.0667 -104.6667 360° North 185 213 12,300 1,227 Climbing Denver TRACON
Thu 08:13:09 AM 40.1167 -104.6667 351° North 189 217 13,700 1,232 Climbing Denver TRACON
Thu 08:13:55 AM 40.1572 -104.6747 355° North 192 221 14,600 1,189 Climbing Denver Center
Thu 08:14:55 AM 40.2136 -104.6814 North 197 227 15,800 1,100 Climbing Denver Center
Thu 08:15:55 AM 40.2700 -104.6797 355° North 266 306 16,800 1,000 Climbing Denver Center
Thu 08:16:55 AM 40.3306 -104.6864 North 228 262 17,800 850 Climbing Denver Center
Thu 08:17:55 AM 40.3847 -104.6850 355° North 216 249 18,500 750 Climbing Denver Center
Thu 08:18:55 AM 40.4411 -104.6917 341° North 216 249 19,300 650 Climbing Denver Center
Thu 08:19:55 AM 40.4978 -104.7175 331° Northwest 211 243 19,800 350 Climbing Denver Center
Thu 08:20:55 AM 40.5483 -104.7544 329° Northwest 205 236 20,000 50 Climbing Denver Center
Thu 08:21:55 AM 40.6011 -104.7967 330° Northwest 220 253 19,900 50 Descending Denver Center
Thu 08:22:55 AM 40.6581 -104.8392 333° Northwest 225 259 20,100 50 Climbing Denver Center
Thu 08:23:55 AM 40.7253 -104.8842 325° Northwest 237 273 20,000 -50 Descending Denver Center
Thu 08:24:55 AM 40.7825 -104.9375 330° Northwest 243 280 20,000  Level Denver Center
Thu 08:25:55 AM 40.8414 -104.9828 334° Northwest 248 285 20,000  Level Denver Center
Thu 08:26:55 AM 40.9044 -105.0228 331° Northwest 253 291 20,000  Level Denver Center
Thu 08:27:55 AM 40.9656 -105.0681 327° Northwest 253 291 20,000 50 Level Denver Center
Thu 08:28:55 AM 41.0222 -105.1164 327° Northwest 253 291 20,100 50 Climbing Denver Center
Thu 08:29:55 AM 41.0750 -105.1622 334° Northwest 253 291 20,100  Level Denver Center
Thu 08:30:55 AM 41.1400 -105.2050 332° Northwest 253 291 20,100 -100 Level Denver Center
Thu 08:31:55 AM 41.2114 -105.2561 336° Northwest 260 299 19,900 -200 Descending Denver Center
Thu 08:32:55 AM 41.2744 -105.2936 335° Northwest 260 299 19,700  Descending Denver Center
Thu 08:33:55 AM 41.3311 -105.3286 328° Northwest 254 292 19,900 50 Climbing Denver Center
Thu 08:34:55 AM 41.3942 -105.3803 331° Northwest 259 298 19,800 100 Descending Denver Center
Thu 08:35:55 AM 41.4611 -105.4289 333° Northwest 254 292 20,100 -50 Climbing Denver Center
Thu 08:36:55 AM 41.5219 -105.4694 337° Northwest 249 287 19,700 -150 Descending Denver Center
Thu 08:37:55 AM 41.5786 -105.5019 335° Northwest 249 287 19,800 150 Climbing Denver Center
Thu 08:38:55 AM 41.6394 -105.5400 327° Northwest 237 273 20,000 100 Climbing Denver Center
Thu 08:39:55 AM 41.7022 -105.5947 343° North 237 273 20,000 -100 Level Denver Center
Thu 08:40:55 AM 41.7672 -105.6217 348° North 237 273 19,800 -350 Descending Denver Center
Thu 08:41:55 AM 41.8339 -105.6403 338° Northwest 256 295 19,300 -450 Descending Denver Center
Thu 08:42:55 AM 41.9031 -105.6786 335° Northwest 261 300 18,900 -700 Descending Denver Center
Thu 08:43:55 AM 41.9783 -105.7250 332° Northwest 272 313 17,900 -750 Descending Denver Center
Thu 08:44:55 AM 42.0475 -105.7747 343° North 277 319 17,400 -500 Descending Denver Center
Thu 08:45:55 AM 42.1142 -105.8019 344° North 277 319 16,900 -500 Descending Denver Center
Thu 08:46:55 AM 42.1894 -105.8319 331° Northwest 277 319 16,400 -500 Descending Denver Center
Thu 08:47:55 AM 42.2606 -105.8844 329° Northwest 270 311 15,900 -400 Descending Denver Center
Thu 08:48:55 AM 42.3256 -105.9372 326° Northwest 270 311 15,600 -300 Descending Denver Center
Thu 08:49:55 AM 42.3800 -105.9875 324° Northwest 270 311 15,300 -300 Descending Denver Center
Thu 08:50:55 AM 42.4406 -106.0461 331° Northwest 275 316 15,000 -400 Descending Denver Center
Thu 08:51:55 AM 42.5158 -106.1019 334° Northwest 268 308 14,500 -650 Descending Denver Center
Thu 08:52:55 AM 42.5847 -106.1467 331° Northwest 273 314 13,700 -1,050 Descending Denver Center
Thu 08:53:55 AM 42.6472 -106.1942 331° Northwest 279 321 12,400 -1,200 Descending Denver Center
Thu 08:54:55 AM 42.7097 -106.2419 332° Northwest 272 313 11,300 -1,300 Descending Denver Center
Thu 08:55:55 AM 42.7786 -106.2928 333° Northwest 260 299 9,800 -1,750 Descending Denver Center
Thu 08:56:55 AM 42.8392 -106.3350 339° North 249 287 7,800 -1,450 Descending Denver Center
Thu 08:57:55 AM 42.8975 -106.3661 333° Northwest 249 287 6,900 -550 Descending Denver Center
Thu 08:58:55 AM 42.9581 -106.4083 334° Northwest 244 281 6,700 4,050 Descending Denver Center
Thu 08:59:55 AM 43.0206 -106.4508 333° Northwest 244 281 15,000 4,150 Climbing Denver Center
Thu 09:00:55 AM 43.0831 -106.4936 333° Northwest 244 281 15,000  Level Denver Center

Login

Don't have an account? Register now (free) for customized features, flight alerts, and more!